createdAt,value
2022-08-06T00:00:26.813Z,0.93
2022-08-06T00:02:54.305Z,0.90
2022-08-06T00:05:27.737Z,0.95
2022-08-06T00:08:02.011Z,1.00
2022-08-06T00:10:29.258Z,0.60
2022-08-06T00:12:56.010Z,1.00
2022-08-06T00:16:06.382Z,0.90
2022-08-06T00:18:09.128Z,0.90
2022-08-06T00:20:42.254Z,0.77
2022-08-06T00:23:16.615Z,0.85
2022-08-06T00:25:51.526Z,0.80
2022-08-06T00:28:20.509Z,0.82
2022-08-06T00:30:47.651Z,0.80
2022-08-06T00:33:15.437Z,1.00
2022-08-06T00:35:45.676Z,1.00
2022-08-06T00:38:13.459Z,0.90
2022-08-06T00:40:50.668Z,0.90
2022-08-06T00:43:26.822Z,1.00
2022-08-06T00:46:06.210Z,0.90
2022-08-06T00:48:52.728Z,0.80
2022-08-06T00:51:21.358Z,0.95
2022-08-06T00:53:48.450Z,1.15
2022-08-06T00:56:15.315Z,0.93
2022-08-06T00:58:42.088Z,0.80
2022-08-06T01:01:17.712Z,0.90
2022-08-06T01:03:51.690Z,1.05
2022-08-06T01:06:55.407Z,0.80
2022-08-06T01:09:10.325Z,0.80
2022-08-06T01:11:40.134Z,0.88
2022-08-06T01:14:10.136Z,1.00
2022-08-06T01:16:48.890Z,0.90
2022-08-06T01:21:20.408Z,1.00
2022-08-06T01:22:59.000Z,0.88
2022-08-06T01:25:48.425Z,0.88
2022-08-06T01:28:41.480Z,0.80
2022-08-06T01:31:16.206Z,0.90
2022-08-06T01:33:48.173Z,0.80
2022-08-06T01:36:31.370Z,0.90
2022-08-06T01:39:01.337Z,1.00
2022-08-06T01:41:54.890Z,0.80
2022-08-06T01:44:30.674Z,0.95
2022-08-06T01:47:05.799Z,1.00
2022-08-06T01:50:01.222Z,0.90
2022-08-06T01:52:32.649Z,1.00
2022-08-06T01:55:01.381Z,0.90
2022-08-06T01:58:07.499Z,1.10
2022-08-06T02:00:16.428Z,0.80
2022-08-06T02:02:44.728Z,0.90
2022-08-06T02:05:14.769Z,1.00
2022-08-06T02:08:37.620Z,1.00
2022-08-06T02:10:34.283Z,1.00
2022-08-06T02:13:03.998Z,1.10
2022-08-06T02:15:56.354Z,1.05
2022-08-06T02:18:35.321Z,0.90
2022-08-06T02:21:13.675Z,1.00
2022-08-06T02:23:46.637Z,0.90
2022-08-06T02:26:15.392Z,0.80
2022-08-06T02:28:44.793Z,0.88
2022-08-06T02:31:17.205Z,1.25
2022-08-06T02:34:03.015Z,1.00
2022-08-06T02:36:50.001Z,0.90
2022-08-06T02:39:29.648Z,0.98
2022-08-06T02:42:15.059Z,0.80
2022-08-06T02:45:06.490Z,0.88
2022-08-06T02:47:56.019Z,0.70
2022-08-06T02:50:36.683Z,0.80
2022-08-06T02:53:24.908Z,0.95
2022-08-06T02:55:57.181Z,0.90
2022-08-06T02:58:45.415Z,0.93
2022-08-06T03:01:29.091Z,0.90
2022-08-06T03:03:59.953Z,1.10
2022-08-06T03:06:31.213Z,1.00
2022-08-06T03:09:00.113Z,0.88
2022-08-06T03:11:31.747Z,0.85
2022-08-06T03:14:01.634Z,0.68
2022-08-06T03:16:30.218Z,0.90
2022-08-06T03:19:53.722Z,0.90
2022-08-06T03:21:55.718Z,1.00
2022-08-06T03:24:26.442Z,1.00
2022-08-06T03:26:57.339Z,0.85
2022-08-06T03:29:26.290Z,1.00
2022-08-06T03:31:59.031Z,1.00
2022-08-06T03:34:42.107Z,0.82
2022-08-06T03:37:10.039Z,1.10
2022-08-06T03:39:43.345Z,0.95
2022-08-06T03:42:14.122Z,0.63
2022-08-06T03:44:41.283Z,0.85
2022-08-06T03:47:30.960Z,1.17
2022-08-06T03:50:13.720Z,0.70
2022-08-06T03:52:46.536Z,1.15
2022-08-06T03:55:22.680Z,0.80
2022-08-06T03:57:52.052Z,0.98
2022-08-06T04:00:28.771Z,0.98
2022-08-06T04:02:58.187Z,0.90
2022-08-06T04:05:31.343Z,0.80
2022-08-06T04:08:04.883Z,1.00
2022-08-06T04:10:38.990Z,0.88
2022-08-06T04:14:04.833Z,1.10
2022-08-06T04:15:56.861Z,0.82
2022-08-06T04:18:34.030Z,1.02
2022-08-06T04:22:56.817Z,0.70
2022-08-06T04:24:10.195Z,1.00
2022-08-06T04:26:38.570Z,1.00
2022-08-06T04:29:07.640Z,1.00
2022-08-06T04:32:11.746Z,0.95
2022-08-06T04:34:27.285Z,0.90
2022-08-06T04:36:56.497Z,0.80
2022-08-06T04:39:24.916Z,0.93
2022-08-06T04:42:06.233Z,0.90
2022-08-06T04:44:33.224Z,0.90
2022-08-06T04:47:00.227Z,1.00
2022-08-06T04:50:01.969Z,0.90
2022-08-06T04:52:45.498Z,0.90
2022-08-06T04:55:25.245Z,0.80
2022-08-06T04:58:03.077Z,0.82
2022-08-06T05:01:03.788Z,0.93
2022-08-06T05:04:07.569Z,1.00
2022-08-06T05:06:20.437Z,0.90
2022-08-06T05:08:52.618Z,0.90
2022-08-06T05:11:31.372Z,0.88
2022-08-06T05:14:07.988Z,1.00
2022-08-06T05:16:39.355Z,0.85
2022-08-06T05:19:22.040Z,0.82
2022-08-06T05:22:10.495Z,0.90
2022-08-06T05:24:39.077Z,1.00
2022-08-06T05:27:19.509Z,0.90
2022-08-06T05:29:49.427Z,0.98
2022-08-06T05:32:19.415Z,0.90
2022-08-06T05:34:52.832Z,0.98
2022-08-06T05:37:25.061Z,0.68
2022-08-06T05:39:57.893Z,0.90
2022-08-06T05:42:26.632Z,0.98
2022-08-06T05:44:53.540Z,1.00
2022-08-06T05:47:24.806Z,1.00
2022-08-06T05:50:01.354Z,0.90
2022-08-06T05:52:32.546Z,0.98
2022-08-06T05:55:02.504Z,0.93
2022-08-06T05:57:45.751Z,0.88
2022-08-06T06:00:41.634Z,1.02
2022-08-06T06:03:24.735Z,0.85
2022-08-06T06:06:06.239Z,0.82
2022-08-06T06:08:57.546Z,1.15
2022-08-06T06:11:54.993Z,1.00
2022-08-06T06:14:32.290Z,1.13
2022-08-06T06:17:11.339Z,0.90
2022-08-06T06:19:39.010Z,0.85
2022-08-06T06:22:27.544Z,1.10
2022-08-06T06:25:03.504Z,0.90
2022-08-06T06:27:46.172Z,0.85
2022-08-06T06:30:52.796Z,1.10
2022-08-06T06:33:51.153Z,0.90
2022-08-06T06:36:31.939Z,1.02
2022-08-06T06:39:05.803Z,0.82
2022-08-06T06:41:44.848Z,0.82
2022-08-06T06:44:17.796Z,1.00
2022-08-06T06:47:16.054Z,1.15
2022-08-06T06:50:04.003Z,1.00
2022-08-06T06:52:40.378Z,0.75
2022-08-06T06:55:51.989Z,0.90
2022-08-06T06:58:24.270Z,1.00
2022-08-06T07:01:12.181Z,0.90
2022-08-06T07:03:43.495Z,1.00
2022-08-06T07:06:11.491Z,0.90
2022-08-06T07:08:58.189Z,1.10
2022-08-06T07:11:28.585Z,1.50
2022-08-06T07:14:08.243Z,1.50
2022-08-06T07:16:36.947Z,1.45
2022-08-06T07:19:10.309Z,1.30
2022-08-06T07:21:47.540Z,1.20
2022-08-06T07:24:35.802Z,1.08
2022-08-06T07:27:07.012Z,1.00
2022-08-06T07:29:49.229Z,0.90
2022-08-06T07:32:30.881Z,0.80
2022-08-06T07:35:00.083Z,1.00
2022-08-06T07:37:37.732Z,1.20
2022-08-06T07:40:08.394Z,0.90
2022-08-06T07:42:38.684Z,1.10
2022-08-06T07:45:16.741Z,0.95
2022-08-06T07:47:55.164Z,1.00
2022-08-06T07:50:24.749Z,1.23
2022-08-06T07:52:56.203Z,1.40
2022-08-06T07:55:31.595Z,1.58
2022-08-06T07:58:05.901Z,1.67
2022-08-06T08:00:32.982Z,1.38
2022-08-06T08:03:55.830Z,1.65
2022-08-06T08:06:22.628Z,1.08
2022-08-06T08:08:53.040Z,1.08
2022-08-06T08:11:38.139Z,1.00
2022-08-06T08:14:13.033Z,1.20
2022-08-06T08:16:42.052Z,1.08
2022-08-06T08:19:34.533Z,0.80
2022-08-06T08:22:07.017Z,0.80
2022-08-06T08:24:35.297Z,0.93
2022-08-06T08:27:12.000Z,1.20
2022-08-06T08:29:51.462Z,0.73
2022-08-06T08:32:22.270Z,0.82
2022-08-06T08:34:53.443Z,1.10
2022-08-06T08:37:21.104Z,1.00
2022-08-06T08:39:48.742Z,0.80
2022-08-06T08:42:31.428Z,0.90
2022-08-06T08:45:00.721Z,0.95
2022-08-06T08:47:39.076Z,0.70
2022-08-06T08:50:19.075Z,0.60
2022-08-06T08:52:48.555Z,0.82
2022-08-06T08:57:07.164Z,0.90
2022-08-06T08:58:41.809Z,0.90
2022-08-06T09:00:54.708Z,1.10
2022-08-06T09:03:22.030Z,0.93
2022-08-06T09:05:50.217Z,0.90
2022-08-06T09:08:59.229Z,1.00
2022-08-06T09:11:11.820Z,0.90
2022-08-06T09:13:51.086Z,0.80
2022-08-06T09:16:19.640Z,0.85
2022-08-06T09:18:59.609Z,0.70
2022-08-06T09:21:26.451Z,0.73
2022-08-06T09:23:57.824Z,1.00
2022-08-06T09:26:53.722Z,0.80
2022-08-06T09:29:23.932Z,0.70
2022-08-06T09:31:59.407Z,0.70
2022-08-06T09:34:41.113Z,0.77
2022-08-06T09:37:08.687Z,0.80
2022-08-06T09:39:59.829Z,0.70
2022-08-06T09:42:43.074Z,0.82
2022-08-06T09:45:16.214Z,0.70
2022-08-06T09:47:58.606Z,0.93
2022-08-06T09:50:47.169Z,0.70
2022-08-06T09:53:18.904Z,0.90
2022-08-06T09:55:50.647Z,0.77
2022-08-06T09:58:32.104Z,0.70
2022-08-06T10:01:12.244Z,0.70
2022-08-06T10:04:05.906Z,0.65
2022-08-06T10:06:54.733Z,0.73
2022-08-06T10:09:44.363Z,0.93
2022-08-06T10:12:20.777Z,0.80
2022-08-06T10:14:53.144Z,0.70
2022-08-06T10:17:23.077Z,0.80
2022-08-06T10:20:11.853Z,0.75
2022-08-06T10:23:00.511Z,0.90
2022-08-06T10:25:30.752Z,0.90
2022-08-06T10:27:58.159Z,0.73
2022-08-06T10:30:25.061Z,0.75
2022-08-06T10:32:59.425Z,0.77
2022-08-06T10:35:29.778Z,1.00
2022-08-06T10:38:14.420Z,0.80
2022-08-06T10:40:56.972Z,0.70
2022-08-06T10:43:27.037Z,0.70
2022-08-06T10:45:56.338Z,0.70
2022-08-06T10:49:00.602Z,0.90
2022-08-06T10:51:13.105Z,0.70
2022-08-06T10:54:01.139Z,0.68
2022-08-06T10:56:32.932Z,0.80
2022-08-06T10:59:07.115Z,0.90
2022-08-06T11:02:07.817Z,0.82
2022-08-06T11:04:59.796Z,0.60
2022-08-06T11:08:09.362Z,0.80
2022-08-06T11:10:27.037Z,0.55
2022-08-06T11:13:37.329Z,0.40
2022-08-06T11:16:27.953Z,0.60
2022-08-06T11:19:10.401Z,0.73
2022-08-06T11:22:01.122Z,0.73
2022-08-06T11:24:29.866Z,0.73
2022-08-06T11:27:02.114Z,0.75
2022-08-06T11:30:12.366Z,0.63
2022-08-06T11:32:53.529Z,0.60
2022-08-06T11:35:36.065Z,0.70
2022-08-06T11:38:24.004Z,0.80
2022-08-06T11:41:06.235Z,0.75
2022-08-06T11:44:02.742Z,0.80
2022-08-06T11:46:39.830Z,0.90
2022-08-06T11:49:17.970Z,0.70
2022-08-06T11:52:06.882Z,0.75
2022-08-06T11:54:39.188Z,0.70
2022-08-06T11:57:12.982Z,0.85
2022-08-06T11:59:54.732Z,0.88
2022-08-06T12:02:41.062Z,0.90
2022-08-06T12:05:14.137Z,1.10
2022-08-06T12:07:51.834Z,0.90
2022-08-06T12:10:29.506Z,1.20
2022-08-06T12:12:57.218Z,1.10
2022-08-06T12:16:00.310Z,0.80
2022-08-06T12:18:20.922Z,0.95
2022-08-06T12:20:54.817Z,1.02
2022-08-06T12:23:53.981Z,1.00
2022-08-06T12:26:11.240Z,0.90
2022-08-06T12:28:38.588Z,0.80
2022-08-06T12:31:34.713Z,1.02
2022-08-06T12:33:52.423Z,0.73
2022-08-06T12:36:31.893Z,0.90
2022-08-06T12:39:04.822Z,0.80
2022-08-06T12:41:46.071Z,0.98
2022-08-06T12:44:20.174Z,1.00
2022-08-06T12:47:12.552Z,0.90
2022-08-06T12:49:43.759Z,0.77
2022-08-06T12:52:14.321Z,0.80
2022-08-06T12:54:41.513Z,0.70
2022-08-06T12:57:09.537Z,0.98
2022-08-06T12:59:42.827Z,0.90
2022-08-06T13:02:18.218Z,0.90
2022-08-06T13:04:56.103Z,0.90
2022-08-06T13:07:22.846Z,1.02
2022-08-06T13:14:03.355Z,0.90
2022-08-06T13:15:25.689Z,0.80
2022-08-06T13:18:13.238Z,0.98
2022-08-06T13:20:58.797Z,1.00
2022-08-06T13:23:35.516Z,0.82
2022-08-06T13:26:26.754Z,0.80
2022-08-06T13:30:31.797Z,0.82
2022-08-06T13:32:27.920Z,0.80
2022-08-06T13:35:01.080Z,1.00
2022-08-06T13:37:55.945Z,0.80
2022-08-06T13:40:51.797Z,0.80
2022-08-06T13:43:42.781Z,0.75
2022-08-06T13:46:20.516Z,0.80
2022-08-06T13:48:55.595Z,1.00
2022-08-06T13:51:29.032Z,0.90
2022-08-06T13:54:04.207Z,0.80
2022-08-06T13:56:42.537Z,0.82
2022-08-06T13:59:17.074Z,0.70
2022-08-06T14:01:46.165Z,0.77
2022-08-06T14:04:22.806Z,0.60
2022-08-06T14:06:53.920Z,0.60
2022-08-06T14:09:22.860Z,0.60
2022-08-06T14:11:55.792Z,0.70
2022-08-06T14:14:24.884Z,0.88
2022-08-06T14:16:53.187Z,1.00
2022-08-06T14:20:16.019Z,0.90
2022-08-06T14:22:07.196Z,0.70
2022-08-06T14:24:38.975Z,0.90
2022-08-06T14:27:14.913Z,0.98
2022-08-06T14:30:25.362Z,0.82
2022-08-06T14:32:45.959Z,1.10
2022-08-06T14:35:15.027Z,1.00
2022-08-06T14:37:51.286Z,1.00
2022-08-06T14:40:59.658Z,1.00
2022-08-06T14:43:55.164Z,1.00
2022-08-06T14:46:26.149Z,1.20
2022-08-06T14:48:57.650Z,1.00
2022-08-06T14:52:01.056Z,0.82
2022-08-06T14:54:14.032Z,0.90
2022-08-06T14:56:45.231Z,2.08
2022-08-06T14:59:12.679Z,2.30
2022-08-06T15:01:40.412Z,2.03
2022-08-06T15:04:23.679Z,1.90
2022-08-06T15:06:57.326Z,1.52
2022-08-06T15:10:03.284Z,1.55
2022-08-06T15:12:25.930Z,1.30
2022-08-06T15:15:01.416Z,1.50
2022-08-06T15:18:05.489Z,1.25
2022-08-06T15:20:18.349Z,1.40
2022-08-06T15:22:52.254Z,1.45
2022-08-06T15:26:00.418Z,1.30
2022-08-06T15:28:06.215Z,1.55
2022-08-06T15:30:33.741Z,1.50
2022-08-06T15:33:07.931Z,1.40
2022-08-06T15:35:43.604Z,1.40
2022-08-06T15:38:23.966Z,1.50
2022-08-06T15:40:50.789Z,1.48
2022-08-06T15:43:17.321Z,1.52
2022-08-06T15:45:52.201Z,1.33
2022-08-06T15:48:28.175Z,1.20
2022-08-06T15:51:27.939Z,1.27
2022-08-06T15:53:54.064Z,1.45
2022-08-06T15:56:27.380Z,1.60
2022-08-06T15:59:12.818Z,1.30
2022-08-06T16:02:02.070Z,1.38
2022-08-06T16:04:29.476Z,1.20
2022-08-06T16:06:59.187Z,1.13
2022-08-06T16:09:28.101Z,1.13
2022-08-06T16:11:57.043Z,1.80
2022-08-06T16:14:32.938Z,1.65
2022-08-06T16:17:06.297Z,1.65
2022-08-06T16:19:49.115Z,1.50
2022-08-06T16:22:18.509Z,1.67
2022-08-06T16:24:45.128Z,1.15
2022-08-06T16:27:11.749Z,1.40
2022-08-06T16:29:41.808Z,1.23
2022-08-06T16:32:10.703Z,1.50
2022-08-06T16:34:37.326Z,1.60
2022-08-06T16:37:24.197Z,1.40
2022-08-06T16:39:59.970Z,1.40
2022-08-06T16:42:29.854Z,1.50
2022-08-06T16:45:02.584Z,1.70
2022-08-06T16:48:18.443Z,1.73
2022-08-06T16:50:25.798Z,2.10
2022-08-06T16:54:07.779Z,2.17
2022-08-06T16:55:57.884Z,2.05
2022-08-06T16:58:34.379Z,2.45
2022-08-06T17:02:20.734Z,2.70
2022-08-06T17:03:56.244Z,2.47
2022-08-06T17:06:28.398Z,2.80
2022-08-06T17:08:57.282Z,3.38
2022-08-06T17:11:51.939Z,3.00
2022-08-06T17:14:13.159Z,2.40
2022-08-06T17:16:41.343Z,2.55
2022-08-06T17:19:16.052Z,2.45
2022-08-06T17:21:58.706Z,2.47
2022-08-06T17:24:32.812Z,2.13
2022-08-06T17:27:08.669Z,2.47
2022-08-06T17:29:46.054Z,2.38
2022-08-06T17:32:31.934Z,2.72
2022-08-06T17:35:06.213Z,2.50
2022-08-06T17:37:43.709Z,2.58
2022-08-06T17:40:19.319Z,2.60
2022-08-06T17:43:00.621Z,2.78
2022-08-06T17:45:31.971Z,2.40
2022-08-06T17:47:58.533Z,2.80
2022-08-06T17:50:40.810Z,2.92
2022-08-06T17:53:19.499Z,2.67
2022-08-06T17:55:59.585Z,2.65
2022-08-06T17:58:37.892Z,2.58
2022-08-06T18:01:44.172Z,2.30
2022-08-06T18:04:21.832Z,2.70
2022-08-06T18:06:49.797Z,2.60
2022-08-06T18:10:08.740Z,2.60
2022-08-06T18:12:04.445Z,2.67
2022-08-06T18:14:33.161Z,2.30
2022-08-06T18:17:00.996Z,2.65
2022-08-06T18:19:36.368Z,2.42
2022-08-06T18:22:21.614Z,2.22
2022-08-06T18:24:52.229Z,2.40
2022-08-06T18:27:54.125Z,2.58
2022-08-06T18:30:30.034Z,2.67
2022-08-06T18:33:08.224Z,2.90
2022-08-06T18:35:57.798Z,2.40
2022-08-06T18:38:24.019Z,2.80
2022-08-06T18:41:00.470Z,2.30
2022-08-06T18:43:49.622Z,2.65
2022-08-06T18:46:16.858Z,2.70
2022-08-06T18:49:02.249Z,2.35
2022-08-06T18:51:28.922Z,2.33
2022-08-06T18:54:05.167Z,2.55
2022-08-06T18:56:32.969Z,2.47
2022-08-06T18:58:59.508Z,2.45
2022-08-06T19:01:26.250Z,2.58
2022-08-06T19:03:55.171Z,2.15
2022-08-06T19:06:28.976Z,2.10
2022-08-06T19:08:58.043Z,2.13
2022-08-06T19:11:25.765Z,2.00
2022-08-06T19:14:18.724Z,2.58
2022-08-06T19:16:48.656Z,2.20
2022-08-06T19:19:24.666Z,1.92
2022-08-06T19:22:09.642Z,2.10
2022-08-06T19:24:39.637Z,2.00
2022-08-06T19:27:08.201Z,1.80
2022-08-06T19:29:58.431Z,1.98
2022-08-06T19:32:27.690Z,1.95
2022-08-06T19:34:56.271Z,1.85
2022-08-06T19:37:58.934Z,1.98
2022-08-06T19:40:28.835Z,2.00
2022-08-06T19:44:27.610Z,1.92
2022-08-06T19:46:25.614Z,1.73
2022-08-06T19:48:29.592Z,1.80
2022-08-06T19:50:56.566Z,1.73
2022-08-06T19:53:23.588Z,1.88
2022-08-06T19:56:07.993Z,1.80
2022-08-06T19:58:43.993Z,2.00
2022-08-06T20:01:31.997Z,2.05
2022-08-06T20:03:59.461Z,1.90
2022-08-06T20:06:40.150Z,1.80
2022-08-06T20:09:27.030Z,1.70
2022-08-06T20:12:04.070Z,1.50
2022-08-06T20:14:34.067Z,1.55
2022-08-06T20:17:01.230Z,1.40
2022-08-06T20:20:05.425Z,1.70
2022-08-06T20:22:15.166Z,1.50
2022-08-06T20:24:42.002Z,1.75
2022-08-06T20:27:09.201Z,1.70
2022-08-06T20:30:06.063Z,1.55
2022-08-06T20:32:22.691Z,1.55
2022-08-06T20:34:49.508Z,1.58
2022-08-06T20:37:16.051Z,1.55
2022-08-06T20:39:43.377Z,1.38
2022-08-06T20:42:15.353Z,1.50
2022-08-06T20:44:42.022Z,1.40
2022-08-06T20:47:44.059Z,1.40
2022-08-06T20:50:05.623Z,1.45
2022-08-06T20:52:34.000Z,1.60
2022-08-06T20:55:01.658Z,1.52
2022-08-06T20:57:37.329Z,1.50
2022-08-06T21:00:17.453Z,1.63
2022-08-06T21:02:54.391Z,1.52
2022-08-06T21:05:46.940Z,1.30
2022-08-06T21:08:17.855Z,1.38
2022-08-06T21:10:45.907Z,1.35
2022-08-06T21:13:29.509Z,1.38
2022-08-06T21:16:05.440Z,1.30
2022-08-06T21:18:44.385Z,1.42
2022-08-06T21:21:11.522Z,1.40
2022-08-06T21:23:57.346Z,1.40
2022-08-06T21:26:34.382Z,1.35
2022-08-06T21:30:07.204Z,1.30
2022-08-06T21:31:48.976Z,1.25
2022-08-06T21:34:18.153Z,1.10
2022-08-06T21:36:46.865Z,1.30
2022-08-06T21:39:16.015Z,1.30
2022-08-06T21:41:55.892Z,1.38
2022-08-06T21:44:27.856Z,1.33
2022-08-06T21:46:58.877Z,1.30
2022-08-06T21:50:00.100Z,1.10
2022-08-06T21:52:27.500Z,1.23
2022-08-06T21:54:58.109Z,1.15
2022-08-06T21:57:25.381Z,1.30
2022-08-06T21:59:53.608Z,1.25
2022-08-06T22:02:26.563Z,1.30
2022-08-06T22:05:00.349Z,1.20
2022-08-06T22:08:06.251Z,1.10
2022-08-06T22:10:28.772Z,1.40
2022-08-06T22:13:13.106Z,1.30
2022-08-06T22:15:47.130Z,1.02
2022-08-06T22:18:16.942Z,1.25
2022-08-06T22:20:45.622Z,1.23
2022-08-06T22:23:12.973Z,1.05
2022-08-06T22:25:39.831Z,1.17
2022-08-06T22:28:09.457Z,1.20
2022-08-06T22:30:42.598Z,1.10
2022-08-06T22:33:17.847Z,1.20
2022-08-06T22:35:58.420Z,1.10
2022-08-06T22:38:37.864Z,1.13
2022-08-06T22:41:04.458Z,1.20
2022-08-06T22:43:57.046Z,1.20
2022-08-06T22:46:17.576Z,1.30
2022-08-06T22:48:47.179Z,1.30
2022-08-06T22:51:19.107Z,1.10
2022-08-06T22:54:28.298Z,1.27
2022-08-06T22:56:41.649Z,1.20
2022-08-06T23:00:06.597Z,1.40
2022-08-06T23:02:16.321Z,1.10
2022-08-06T23:04:46.487Z,1.10
2022-08-06T23:07:13.488Z,1.30
2022-08-06T23:09:41.324Z,1.25
2022-08-06T23:12:17.381Z,1.15
2022-08-06T23:14:46.970Z,1.20
2022-08-06T23:17:13.835Z,1.20
2022-08-06T23:19:56.870Z,1.10
2022-08-06T23:22:25.684Z,1.13
2022-08-06T23:24:55.540Z,1.25
2022-08-06T23:27:46.564Z,1.00
2022-08-06T23:30:20.300Z,1.00
2022-08-06T23:32:49.057Z,0.90
2022-08-06T23:35:35.203Z,1.30
2022-08-06T23:38:32.045Z,1.15
2022-08-06T23:40:51.529Z,1.05
2022-08-06T23:43:19.284Z,1.20
2022-08-06T23:45:47.932Z,1.13
2022-08-06T23:48:16.806Z,0.95
2022-08-06T23:50:52.752Z,0.90
2022-08-06T23:54:05.816Z,1.20
2022-08-06T23:56:10.451Z,1.10
2022-08-06T23:58:40.216Z,1.00
